createdAt,value
2023-05-13T00:00:43.671Z,0.00
2023-05-13T00:01:43.640Z,0.00
2023-05-13T00:02:44.653Z,0.00
2023-05-13T00:03:43.821Z,0.00
2023-05-13T00:04:43.920Z,0.00
2023-05-13T00:06:15.702Z,0.00
2023-05-13T00:06:43.527Z,0.00
2023-05-13T00:07:43.678Z,0.00
2023-05-13T00:08:43.588Z,0.00
2023-05-13T00:09:43.650Z,0.00
2023-05-13T00:10:43.838Z,0.00
2023-05-13T00:11:43.536Z,0.00
2023-05-13T00:12:43.453Z,0.00
2023-05-13T00:13:43.668Z,0.00
2023-05-13T00:15:15.564Z,0.00
2023-05-13T00:15:43.475Z,0.00
2023-05-13T00:16:43.732Z,0.00
2023-05-13T00:17:43.825Z,0.00
2023-05-13T00:18:43.586Z,0.00
2023-05-13T00:19:43.455Z,0.00
2023-05-13T00:20:43.517Z,0.00
2023-05-13T00:21:43.519Z,0.00
2023-05-13T00:22:43.478Z,0.00
2023-05-13T00:23:43.345Z,0.00
2023-05-13T00:24:44.509Z,0.00
2023-05-13T00:25:43.450Z,0.00
2023-05-13T00:26:43.400Z,0.00
2023-05-13T00:27:43.466Z,0.00
2023-05-13T00:28:43.312Z,0.00
2023-05-13T00:29:43.330Z,0.00
2023-05-13T00:30:43.301Z,0.00
2023-05-13T00:31:43.768Z,0.00
2023-05-13T00:32:43.423Z,0.00
2023-05-13T00:33:43.333Z,0.00
2023-05-13T00:34:43.397Z,0.00
2023-05-13T00:35:43.334Z,0.00
2023-05-13T00:36:43.482Z,0.00
2023-05-13T00:37:43.370Z,0.00
2023-05-13T00:38:43.378Z,0.00
2023-05-13T00:39:43.356Z,0.00
2023-05-13T00:40:43.431Z,0.00
2023-05-13T00:41:43.359Z,0.00
2023-05-13T00:42:43.710Z,0.00
2023-05-13T00:43:43.338Z,0.00
2023-05-13T00:44:43.312Z,0.00
2023-05-13T00:45:43.429Z,0.00
2023-05-13T00:46:43.366Z,0.00
2023-05-13T00:47:43.978Z,0.00
2023-05-13T00:48:43.398Z,0.00
2023-05-13T00:49:43.290Z,0.00
2023-05-13T00:50:43.278Z,0.00
2023-05-13T00:51:43.309Z,0.00
2023-05-13T00:52:43.270Z,0.00
2023-05-13T00:53:43.571Z,0.00
2023-05-13T00:54:43.285Z,0.00
2023-05-13T00:55:43.216Z,0.00
2023-05-13T00:56:43.188Z,0.00
2023-05-13T00:57:43.138Z,0.00
2023-05-13T00:58:43.135Z,0.00
2023-05-13T00:59:43.099Z,0.00
2023-05-13T01:00:43.237Z,0.00
2023-05-13T01:01:43.216Z,0.00
2023-05-13T01:02:43.190Z,0.00
2023-05-13T01:03:43.095Z,0.00
2023-05-13T01:04:43.205Z,0.00
2023-05-13T01:05:43.220Z,0.00
2023-05-13T01:06:43.188Z,0.00
2023-05-13T01:07:43.429Z,0.00
2023-05-13T01:08:43.154Z,0.00
2023-05-13T01:09:43.229Z,0.00
2023-05-13T01:10:43.110Z,0.00
2023-05-13T01:11:43.217Z,0.00
2023-05-13T01:12:43.121Z,0.00
2023-05-13T01:13:43.099Z,0.00
2023-05-13T01:14:43.187Z,0.00
2023-05-13T01:15:43.156Z,0.00
2023-05-13T01:16:43.165Z,0.00
2023-05-13T01:17:43.101Z,0.00
2023-05-13T01:18:43.434Z,0.00
2023-05-13T01:19:43.067Z,0.00
2023-05-13T01:20:43.095Z,0.00
2023-05-13T01:21:43.072Z,0.00
2023-05-13T01:22:43.036Z,0.00
2023-05-13T01:23:43.074Z,0.00
2023-05-13T01:24:43.119Z,0.00
2023-05-13T01:25:42.969Z,0.00
2023-05-13T01:26:42.967Z,0.00
2023-05-13T01:27:42.920Z,0.00
2023-05-13T01:28:42.909Z,0.00
2023-05-13T01:29:42.886Z,0.00
2023-05-13T01:30:42.881Z,0.00
2023-05-13T01:31:43.018Z,0.00
2023-05-13T01:32:43.003Z,0.00
2023-05-13T01:33:42.883Z,0.00
2023-05-13T01:34:42.858Z,0.00
2023-05-13T01:35:42.832Z,0.00
2023-05-13T01:36:42.823Z,0.00
2023-05-13T01:37:42.938Z,0.00
2023-05-13T01:38:42.844Z,0.00
2023-05-13T01:39:42.984Z,0.00
2023-05-13T01:40:42.924Z,0.00
2023-05-13T01:41:42.956Z,0.00
2023-05-13T01:42:42.959Z,0.00
2023-05-13T01:43:42.914Z,0.00
2023-05-13T01:44:42.888Z,0.00
2023-05-13T01:45:42.911Z,0.00
2023-05-13T01:46:42.959Z,0.00
2023-05-13T01:47:42.910Z,0.00
2023-05-13T01:48:43.572Z,0.00
2023-05-13T01:49:42.826Z,0.00
2023-05-13T01:50:42.870Z,0.00
2023-05-13T01:51:42.864Z,0.00
2023-05-13T01:52:42.889Z,0.00
2023-05-13T01:53:42.916Z,0.00
2023-05-13T01:54:42.824Z,0.00
2023-05-13T01:55:42.862Z,0.00
2023-05-13T01:56:42.792Z,0.00
2023-05-13T01:57:42.790Z,0.00
2023-05-13T01:58:42.774Z,0.00
2023-05-13T01:59:43.103Z,0.00
2023-05-13T02:00:42.756Z,0.00
2023-05-13T02:01:42.833Z,0.00
2023-05-13T02:02:42.901Z,0.00
2023-05-13T02:03:42.793Z,0.00
2023-05-13T02:04:42.779Z,0.00
2023-05-13T02:05:42.659Z,0.00
2023-05-13T02:06:42.651Z,0.00
2023-05-13T02:07:42.624Z,0.00
2023-05-13T02:08:42.644Z,0.00
2023-05-13T02:09:42.621Z,0.00
2023-05-13T02:10:42.701Z,0.00
2023-05-13T02:11:42.592Z,0.00
2023-05-13T02:12:42.569Z,0.00
2023-05-13T02:13:42.585Z,0.00
2023-05-13T02:14:42.623Z,0.00
2023-05-13T02:15:42.636Z,0.00
2023-05-13T02:16:42.615Z,0.00
2023-05-13T02:17:42.629Z,0.00
2023-05-13T02:18:42.609Z,0.00
2023-05-13T02:19:42.547Z,0.00
2023-05-13T02:20:42.552Z,0.00
2023-05-13T02:21:42.678Z,0.00
2023-05-13T02:22:42.630Z,0.00
2023-05-13T02:23:42.628Z,0.00
2023-05-13T02:24:42.670Z,0.00
2023-05-13T02:25:42.602Z,0.00
2023-05-13T02:26:42.627Z,0.00
2023-05-13T02:27:42.582Z,0.00
2023-05-13T02:28:42.871Z,0.00
2023-05-13T02:29:42.583Z,0.00
2023-05-13T02:30:42.548Z,0.00
2023-05-13T02:31:42.637Z,0.00
2023-05-13T02:32:42.707Z,0.00
2023-05-13T02:33:42.546Z,0.00
2023-05-13T02:34:42.521Z,0.00
2023-05-13T02:35:42.528Z,0.00
2023-05-13T02:36:42.518Z,0.00
2023-05-13T02:37:42.583Z,0.00
2023-05-13T02:38:42.579Z,0.00
2023-05-13T02:39:42.794Z,0.00
2023-05-13T02:40:42.523Z,0.00
2023-05-13T02:41:42.561Z,0.00
2023-05-13T02:42:42.528Z,0.00
2023-05-13T02:43:42.526Z,0.00
2023-05-13T02:44:42.462Z,0.00
2023-05-13T02:45:42.510Z,0.00
2023-05-13T02:46:42.481Z,0.00
2023-05-13T02:47:42.457Z,0.00
2023-05-13T02:48:42.855Z,0.00
2023-05-13T02:49:42.456Z,0.00
2023-05-13T02:50:42.681Z,0.00
2023-05-13T02:51:42.421Z,0.00
2023-05-13T02:52:42.420Z,0.00
2023-05-13T02:53:42.432Z,0.00
2023-05-13T02:54:42.497Z,0.00
2023-05-13T02:55:42.442Z,0.00
2023-05-13T02:56:42.388Z,0.00
2023-05-13T02:57:42.395Z,0.00
2023-05-13T02:58:42.390Z,0.00
2023-05-13T02:59:42.442Z,0.00
2023-05-13T03:00:42.375Z,0.00
2023-05-13T03:01:42.621Z,0.00
2023-05-13T03:02:43.498Z,0.00
2023-05-13T03:03:42.376Z,0.00
2023-05-13T03:04:42.221Z,0.00
2023-05-13T03:05:42.312Z,0.00
2023-05-13T03:06:42.435Z,0.00
2023-05-13T03:07:43.283Z,0.00
2023-05-13T03:08:42.235Z,0.00
2023-05-13T03:09:42.409Z,0.00
2023-05-13T03:10:42.329Z,0.00
2023-05-13T03:11:42.292Z,0.00
2023-05-13T03:12:42.186Z,0.00
2023-05-13T03:13:42.253Z,0.00
2023-05-13T03:14:42.555Z,0.00
2023-05-13T03:15:44.445Z,0.00
2023-05-13T03:16:43.311Z,0.00
2023-05-13T03:17:42.250Z,0.00
2023-05-13T03:18:42.290Z,0.00
2023-05-13T03:19:42.228Z,0.00
2023-05-13T03:20:42.285Z,0.00
2023-05-13T03:21:42.277Z,0.00
2023-05-13T03:22:42.211Z,0.00
2023-05-13T03:23:42.233Z,0.00
2023-05-13T03:24:42.181Z,0.00
2023-05-13T03:25:42.543Z,0.00
2023-05-13T03:26:42.158Z,0.00
2023-05-13T03:27:42.256Z,0.00
2023-05-13T03:28:43.172Z,0.00
2023-05-13T03:29:42.195Z,0.00
2023-05-13T03:30:42.150Z,0.00
2023-05-13T03:31:42.210Z,0.00
2023-05-13T03:32:42.227Z,0.00
2023-05-13T03:33:42.111Z,0.00
2023-05-13T03:34:42.165Z,5.62
2023-05-13T03:35:42.134Z,5.62
2023-05-13T03:36:42.456Z,5.62
2023-05-13T03:37:42.109Z,5.62
2023-05-13T03:38:42.192Z,5.62
2023-05-13T03:39:42.077Z,5.62
2023-05-13T03:40:42.083Z,5.62
2023-05-13T03:41:42.089Z,5.62
2023-05-13T03:42:42.100Z,11.25
2023-05-13T03:43:42.044Z,11.25
2023-05-13T03:44:41.993Z,11.25
2023-05-13T03:45:41.954Z,11.25
2023-05-13T03:46:42.134Z,11.25
2023-05-13T03:47:42.007Z,11.25
2023-05-13T03:48:59.792Z,16.88
2023-05-13T03:49:41.922Z,16.88
2023-05-13T03:50:41.921Z,16.88
2023-05-13T03:51:41.870Z,16.88
2023-05-13T03:52:43.121Z,16.88
2023-05-13T03:53:41.922Z,16.88
2023-05-13T03:54:42.052Z,22.50
2023-05-13T03:55:41.966Z,22.50
2023-05-13T03:56:42.038Z,22.50
2023-05-13T03:57:41.971Z,22.50
2023-05-13T03:58:42.001Z,22.50
2023-05-13T03:59:42.001Z,22.50
2023-05-13T04:00:41.902Z,28.12
2023-05-13T04:01:46.701Z,28.12
2023-05-13T04:02:42.126Z,28.12
2023-05-13T04:03:41.933Z,33.75
2023-05-13T04:04:42.298Z,33.75
2023-05-13T04:05:41.891Z,33.75
2023-05-13T04:06:41.902Z,33.75
2023-05-13T04:07:41.955Z,39.38
2023-05-13T04:08:41.868Z,39.38
2023-05-13T04:09:42.935Z,39.38
2023-05-13T04:10:41.932Z,45.00
2023-05-13T04:11:41.937Z,45.00
2023-05-13T04:12:41.778Z,45.00
2023-05-13T04:13:41.947Z,50.62
2023-05-13T04:14:41.867Z,50.62
2023-05-13T04:15:41.895Z,50.62
2023-05-13T04:16:42.171Z,50.62
2023-05-13T04:17:41.906Z,56.25
2023-05-13T04:18:41.741Z,56.25
2023-05-13T04:19:41.694Z,61.88
2023-05-13T04:20:41.809Z,56.25
2023-05-13T04:21:41.693Z,61.88
2023-05-13T04:22:41.722Z,61.88
2023-05-13T04:23:41.714Z,61.88
2023-05-13T04:24:41.698Z,61.88
2023-05-13T04:25:41.664Z,67.50
2023-05-13T04:26:41.743Z,67.50
2023-05-13T04:27:41.619Z,67.50
2023-05-13T04:28:41.718Z,73.12
2023-05-13T04:29:41.642Z,73.12
2023-05-13T04:30:41.651Z,73.12
2023-05-13T04:31:41.803Z,73.12
2023-05-13T04:32:41.804Z,78.75
2023-05-13T04:33:41.974Z,78.75
2023-05-13T04:34:41.745Z,78.75
2023-05-13T04:35:41.746Z,78.75
2023-05-13T04:36:41.717Z,84.38
2023-05-13T04:37:41.708Z,84.38
2023-05-13T04:38:41.664Z,84.38
2023-05-13T04:39:41.646Z,90.00
2023-05-13T04:40:41.675Z,90.00
2023-05-13T04:41:41.681Z,95.62
2023-05-13T04:42:41.694Z,95.62
2023-05-13T04:43:41.635Z,101.25
2023-05-13T04:44:41.886Z,101.25
2023-05-13T04:45:41.644Z,101.25
2023-05-13T04:46:41.652Z,95.62
2023-05-13T04:47:41.640Z,95.62
2023-05-13T04:48:41.680Z,95.62
2023-05-13T04:49:41.575Z,101.25
2023-05-13T04:50:41.616Z,101.25
2023-05-13T04:51:41.611Z,101.25
2023-05-13T04:52:41.574Z,101.25
2023-05-13T04:53:41.972Z,101.25
2023-05-13T04:54:41.558Z,106.88
2023-05-13T04:55:41.883Z,106.88
2023-05-13T04:56:41.565Z,106.88
2023-05-13T04:57:41.589Z,106.88
2023-05-13T04:58:41.559Z,106.88
2023-05-13T04:59:41.554Z,112.50
2023-05-13T05:00:41.515Z,112.50
2023-05-13T05:01:41.522Z,112.50
2023-05-13T05:02:41.457Z,118.12
2023-05-13T05:03:41.382Z,118.12
2023-05-13T05:04:41.441Z,118.12
2023-05-13T05:05:41.371Z,118.12
2023-05-13T05:06:41.400Z,118.12
2023-05-13T05:07:41.336Z,123.75
2023-05-13T05:08:41.346Z,123.75
2023-05-13T05:09:42.423Z,123.75
2023-05-13T05:10:41.353Z,129.38
2023-05-13T05:12:00.400Z,129.38
2023-05-13T05:12:41.354Z,129.38
2023-05-13T05:13:41.421Z,129.38
2023-05-13T05:14:41.712Z,129.38
2023-05-13T05:15:41.406Z,135.00
2023-05-13T05:17:02.493Z,135.00
2023-05-13T05:17:41.405Z,140.62
2023-05-13T05:18:41.460Z,151.88
2023-05-13T05:19:41.297Z,146.25
2023-05-13T05:20:41.323Z,151.88
2023-05-13T05:21:41.278Z,151.88
2023-05-13T05:22:41.288Z,157.50
2023-05-13T05:23:41.266Z,157.50
2023-05-13T05:24:41.310Z,157.50
2023-05-13T05:25:41.262Z,157.50
2023-05-13T05:26:42.854Z,163.12
2023-05-13T05:27:41.251Z,163.12
2023-05-13T05:28:41.218Z,168.75
2023-05-13T05:29:41.226Z,168.75
2023-05-13T05:30:41.272Z,174.38
2023-05-13T05:31:41.379Z,168.75
2023-05-13T05:32:41.234Z,185.62
2023-05-13T05:33:41.207Z,180.00
2023-05-13T05:34:41.214Z,174.38
2023-05-13T05:35:41.176Z,174.38
2023-05-13T05:36:41.213Z,180.00
2023-05-13T05:37:41.213Z,185.62
2023-05-13T05:38:41.129Z,180.00
2023-05-13T05:39:41.177Z,180.00
2023-05-13T05:40:41.147Z,180.00
2023-05-13T05:41:41.113Z,180.00
2023-05-13T05:42:41.228Z,185.62
2023-05-13T05:43:41.164Z,185.62
2023-05-13T05:44:41.139Z,191.25
2023-05-13T05:45:41.115Z,196.88
2023-05-13T05:46:41.101Z,191.25
2023-05-13T05:47:41.148Z,196.88
2023-05-13T05:48:41.110Z,230.62
2023-05-13T05:49:41.061Z,213.75
2023-05-13T05:50:41.067Z,241.88
2023-05-13T05:51:41.026Z,258.75
2023-05-13T05:52:41.026Z,241.88
2023-05-13T05:53:41.171Z,247.50
2023-05-13T05:54:41.053Z,253.12
2023-05-13T05:55:41.013Z,281.25
2023-05-13T05:56:41.055Z,298.12
2023-05-13T05:57:41.022Z,286.88
2023-05-13T05:58:41.010Z,303.75
2023-05-13T05:59:41.389Z,309.38
2023-05-13T06:00:40.965Z,264.38
2023-05-13T06:01:46.719Z,275.62
2023-05-13T06:02:42.050Z,309.38
2023-05-13T06:03:41.060Z,275.62
2023-05-13T06:04:41.106Z,320.62
2023-05-13T06:05:40.949Z,343.12
2023-05-13T06:06:40.983Z,326.25
2023-05-13T06:07:41.983Z,258.75
2023-05-13T06:08:40.985Z,270.00
2023-05-13T06:09:40.990Z,264.38
2023-05-13T06:10:42.070Z,264.38
2023-05-13T06:11:40.864Z,303.75
2023-05-13T06:12:40.880Z,320.62
2023-05-13T06:13:40.886Z,258.75
2023-05-13T06:14:40.893Z,236.25
2023-05-13T06:15:40.933Z,247.50
2023-05-13T06:16:40.891Z,230.62
2023-05-13T06:17:40.907Z,230.62
2023-05-13T06:18:40.895Z,337.50
2023-05-13T06:19:40.901Z,219.38
2023-05-13T06:20:40.858Z,225.00
2023-05-13T06:21:40.848Z,292.50
2023-05-13T06:22:40.848Z,292.50
2023-05-13T06:23:40.788Z,320.62
2023-05-13T06:24:40.898Z,281.25
2023-05-13T06:25:40.862Z,326.25
2023-05-13T06:26:40.898Z,354.38
2023-05-13T06:27:40.812Z,331.88
2023-05-13T06:28:40.864Z,241.88
2023-05-13T06:29:40.816Z,247.50
2023-05-13T06:30:40.790Z,253.12
2023-05-13T06:31:40.920Z,270.00
2023-05-13T06:32:44.933Z,326.25
2023-05-13T06:33:42.790Z,253.12
2023-05-13T06:34:40.775Z,247.50
2023-05-13T06:35:40.732Z,241.88
2023-05-13T06:36:40.769Z,247.50
2023-05-13T06:37:40.771Z,264.38
2023-05-13T06:38:40.728Z,258.75
2023-05-13T06:39:40.706Z,258.75
2023-05-13T06:40:40.701Z,326.25
2023-05-13T06:41:40.729Z,371.25
2023-05-13T06:42:40.768Z,303.75
2023-05-13T06:43:40.729Z,281.25
2023-05-13T06:44:40.711Z,326.25
2023-05-13T06:45:40.682Z,405.00
2023-05-13T06:46:40.755Z,354.38
2023-05-13T06:47:40.725Z,405.00
2023-05-13T06:48:40.696Z,354.38
2023-05-13T06:49:40.657Z,365.62
2023-05-13T06:50:40.615Z,388.12
2023-05-13T06:51:40.662Z,393.75
2023-05-13T06:52:41.976Z,416.25
2023-05-13T06:53:41.658Z,416.25
2023-05-13T06:54:40.610Z,410.62
2023-05-13T06:55:40.613Z,331.88
2023-05-13T06:56:40.658Z,382.50
2023-05-13T06:57:43.426Z,405.00
2023-05-13T06:58:41.617Z,326.25
2023-05-13T06:59:40.623Z,348.75
2023-05-13T07:00:40.651Z,354.38
2023-05-13T07:01:40.576Z,337.50
2023-05-13T07:02:56.484Z,343.12
2023-05-13T07:03:41.632Z,303.75
2023-05-13T07:04:41.813Z,281.25
2023-05-13T07:05:40.534Z,298.12
2023-05-13T07:06:40.546Z,309.38
2023-05-13T07:07:40.536Z,399.38
2023-05-13T07:08:45.425Z,360.00
2023-05-13T07:09:41.585Z,371.25
2023-05-13T07:10:40.524Z,405.00
2023-05-13T07:11:40.492Z,405.00
2023-05-13T07:12:40.583Z,382.50
2023-05-13T07:13:40.498Z,393.75
2023-05-13T07:14:45.242Z,393.75
2023-05-13T07:15:49.237Z,393.75
2023-05-13T07:16:41.557Z,393.75
2023-05-13T07:17:40.508Z,393.75
2023-05-13T07:18:40.449Z,388.12
2023-05-13T07:19:52.531Z,388.12
2023-05-13T07:20:41.489Z,382.50
2023-05-13T07:21:40.421Z,376.88
2023-05-13T07:22:40.440Z,371.25
2023-05-13T07:23:40.921Z,365.62
2023-05-13T07:24:40.444Z,365.62
2023-05-13T07:25:40.460Z,365.62
2023-05-13T07:26:40.436Z,360.00
2023-05-13T07:27:40.455Z,360.00
2023-05-13T07:28:40.407Z,360.00
2023-05-13T07:29:40.402Z,360.00
2023-05-13T07:30:40.387Z,360.00
2023-05-13T07:31:40.425Z,360.00
2023-05-13T07:32:40.530Z,360.00
2023-05-13T07:33:40.374Z,360.00
2023-05-13T07:34:40.353Z,360.00
2023-05-13T07:35:40.324Z,360.00
2023-05-13T07:36:40.338Z,360.00
2023-05-13T07:37:40.385Z,360.00
2023-05-13T07:38:40.297Z,360.00
2023-05-13T07:39:40.293Z,360.00
2023-05-13T07:40:40.455Z,365.62
2023-05-13T07:41:40.289Z,365.62
2023-05-13T07:42:40.421Z,365.62
2023-05-13T07:43:40.343Z,371.25
2023-05-13T07:44:40.284Z,371.25
2023-05-13T07:45:40.247Z,376.88
2023-05-13T07:46:47.912Z,376.88
2023-05-13T07:47:41.564Z,376.88
2023-05-13T07:48:40.319Z,382.50
2023-05-13T07:49:40.221Z,382.50
2023-05-13T07:50:40.300Z,382.50
2023-05-13T07:51:40.247Z,382.50
2023-05-13T07:52:40.237Z,388.12
2023-05-13T07:53:40.226Z,388.12
2023-05-13T07:54:40.255Z,382.50
2023-05-13T07:55:40.178Z,388.12
2023-05-13T07:56:40.177Z,393.75
2023-05-13T07:57:41.252Z,258.75
2023-05-13T07:58:40.151Z,202.50
2023-05-13T07:59:40.575Z,230.62
2023-05-13T08:00:40.222Z,196.88
2023-05-13T08:01:40.161Z,196.88
2023-05-13T08:02:40.299Z,196.88
2023-05-13T08:03:40.369Z,196.88
2023-05-13T08:04:41.275Z,196.88
2023-05-13T08:05:40.138Z,196.88
2023-05-13T08:06:40.265Z,196.88
2023-05-13T08:07:40.392Z,196.88
2023-05-13T08:08:40.702Z,196.88
2023-05-13T08:09:40.745Z,191.25
2023-05-13T08:10:40.123Z,191.25
2023-05-13T08:11:40.304Z,191.25
2023-05-13T08:12:40.180Z,191.25
2023-05-13T08:13:40.170Z,196.88
2023-05-13T08:14:40.106Z,196.88
2023-05-13T08:15:40.350Z,196.88
2023-05-13T08:16:40.175Z,202.50
2023-05-13T08:17:40.187Z,202.50
2023-05-13T08:18:40.169Z,208.12
2023-05-13T08:19:40.203Z,208.12
2023-05-13T08:20:40.064Z,213.75
2023-05-13T08:21:40.010Z,219.38
2023-05-13T08:22:40.014Z,225.00
2023-05-13T08:23:45.500Z,230.62
2023-05-13T08:24:41.968Z,236.25
2023-05-13T08:25:39.976Z,241.88
2023-05-13T08:26:40.133Z,247.50
2023-05-13T08:27:39.954Z,253.12
2023-05-13T08:28:40.009Z,258.75
2023-05-13T08:29:40.016Z,258.75
2023-05-13T08:30:39.961Z,388.12
2023-05-13T08:31:40.390Z,270.00
2023-05-13T08:32:41.046Z,461.25
2023-05-13T08:33:39.961Z,376.88
2023-05-13T08:34:39.948Z,466.88
2023-05-13T08:35:39.938Z,472.50
2023-05-13T08:36:39.934Z,466.88
2023-05-13T08:37:40.014Z,466.88
2023-05-13T08:38:39.893Z,461.25
2023-05-13T08:39:39.966Z,461.25
2023-05-13T08:40:39.887Z,461.25
2023-05-13T08:41:39.888Z,455.62
2023-05-13T08:42:40.098Z,455.62
2023-05-13T08:43:39.908Z,450.00
2023-05-13T08:44:39.897Z,450.00
2023-05-13T08:45:39.900Z,450.00
2023-05-13T08:46:39.988Z,450.00
2023-05-13T08:47:39.918Z,444.38
2023-05-13T08:48:39.888Z,444.38
2023-05-13T08:49:39.848Z,444.38
2023-05-13T08:50:39.811Z,444.38
2023-05-13T08:51:39.826Z,444.38
2023-05-13T08:52:39.829Z,438.75
2023-05-13T08:53:39.866Z,438.75
2023-05-13T08:54:39.812Z,438.75
2023-05-13T08:55:39.756Z,438.75
2023-05-13T08:56:39.825Z,433.12
2023-05-13T08:57:39.806Z,433.12
2023-05-13T08:58:39.869Z,433.12
2023-05-13T08:59:39.782Z,433.12
2023-05-13T09:00:39.788Z,433.12
2023-05-13T09:01:39.849Z,427.50
2023-05-13T09:02:39.757Z,427.50
2023-05-13T09:03:39.737Z,427.50
2023-05-13T09:04:39.799Z,427.50
2023-05-13T09:05:39.902Z,427.50
2023-05-13T09:06:39.829Z,427.50
2023-05-13T09:07:39.704Z,416.25
2023-05-13T09:08:39.769Z,427.50
2023-05-13T09:09:39.687Z,427.50
2023-05-13T09:10:40.173Z,427.50
2023-05-13T09:11:40.299Z,427.50
2023-05-13T09:12:39.818Z,427.50
2023-05-13T09:13:39.978Z,427.50
2023-05-13T09:14:39.894Z,427.50
2023-05-13T09:15:39.761Z,427.50
2023-05-13T09:16:39.851Z,433.12
2023-05-13T09:17:39.649Z,427.50
2023-05-13T09:18:39.736Z,433.12
2023-05-13T09:19:39.815Z,427.50
2023-05-13T09:20:39.614Z,427.50
2023-05-13T09:21:39.618Z,427.50
2023-05-13T09:22:39.619Z,427.50
2023-05-13T09:23:39.700Z,433.12
2023-05-13T09:24:39.615Z,433.12
2023-05-13T09:25:39.776Z,438.75
2023-05-13T09:26:39.663Z,438.75
2023-05-13T09:27:39.571Z,444.38
2023-05-13T09:28:39.802Z,444.38
2023-05-13T09:29:39.606Z,455.62
2023-05-13T09:30:39.589Z,466.88
2023-05-13T09:31:39.632Z,478.12
2023-05-13T09:32:39.632Z,483.75
2023-05-13T09:33:41.180Z,489.38
2023-05-13T09:34:39.579Z,495.00
2023-05-13T09:35:39.674Z,495.00
2023-05-13T09:36:39.492Z,500.62
2023-05-13T09:37:39.652Z,506.25
2023-05-13T09:38:42.390Z,517.50
2023-05-13T09:39:39.501Z,528.75
2023-05-13T09:40:39.534Z,540.00
2023-05-13T09:41:39.450Z,545.62
2023-05-13T09:42:39.436Z,545.62
2023-05-13T09:43:39.539Z,545.62
2023-05-13T09:44:39.443Z,545.62
2023-05-13T09:45:39.447Z,393.75
2023-05-13T09:46:39.484Z,399.38
2023-05-13T09:47:39.429Z,551.25
2023-05-13T09:48:40.820Z,365.62
2023-05-13T09:49:39.519Z,365.62
2023-05-13T09:50:39.384Z,365.62
2023-05-13T09:51:39.443Z,371.25
2023-05-13T09:52:39.409Z,399.38
2023-05-13T09:53:39.429Z,388.12
2023-05-13T09:54:39.415Z,393.75
2023-05-13T09:55:39.398Z,427.50
2023-05-13T09:56:39.388Z,405.00
2023-05-13T09:57:39.377Z,478.12
2023-05-13T09:58:39.416Z,562.50
2023-05-13T09:59:39.387Z,551.25
2023-05-13T10:00:39.518Z,371.25
2023-05-13T10:01:39.591Z,360.00
2023-05-13T10:02:39.566Z,360.00
2023-05-13T10:03:39.609Z,354.38
2023-05-13T10:04:39.338Z,348.75
2023-05-13T10:05:39.422Z,348.75
2023-05-13T10:06:39.333Z,354.38
2023-05-13T10:07:39.366Z,354.38
2023-05-13T10:08:39.381Z,354.38
2023-05-13T10:09:39.271Z,348.75
2023-05-13T10:10:39.741Z,348.75
2023-05-13T10:11:40.291Z,354.38
2023-05-13T10:12:39.380Z,365.62
2023-05-13T10:13:39.252Z,376.88
2023-05-13T10:14:39.272Z,376.88
2023-05-13T10:15:39.265Z,376.88
2023-05-13T10:16:39.302Z,376.88
2023-05-13T10:17:39.295Z,376.88
2023-05-13T10:18:39.310Z,371.25
2023-05-13T10:19:39.195Z,376.88
2023-05-13T10:20:39.220Z,371.25
2023-05-13T10:21:39.267Z,371.25
2023-05-13T10:22:39.141Z,360.00
2023-05-13T10:23:39.168Z,348.75
2023-05-13T10:24:39.175Z,337.50
2023-05-13T10:25:39.179Z,331.88
2023-05-13T10:26:39.120Z,326.25
2023-05-13T10:27:39.149Z,326.25
2023-05-13T10:28:39.122Z,331.88
2023-05-13T10:29:39.162Z,343.12
2023-05-13T10:30:39.101Z,360.00
2023-05-13T10:31:39.192Z,399.38
2023-05-13T10:32:39.362Z,511.88
2023-05-13T10:33:39.087Z,551.25
2023-05-13T10:34:39.246Z,506.25
2023-05-13T10:35:41.911Z,438.75
2023-05-13T10:36:39.132Z,444.38
2023-05-13T10:37:39.102Z,450.00
2023-05-13T10:38:39.208Z,461.25
2023-05-13T10:39:39.131Z,478.12
2023-05-13T10:40:39.079Z,495.00
2023-05-13T10:41:39.051Z,618.75
2023-05-13T10:42:39.035Z,613.12
2023-05-13T10:43:39.106Z,601.88
2023-05-13T10:44:39.012Z,438.75
2023-05-13T10:45:39.157Z,416.25
2023-05-13T10:46:39.150Z,399.38
2023-05-13T10:47:39.144Z,376.88
2023-05-13T10:48:39.116Z,360.00
2023-05-13T10:49:40.700Z,348.75
2023-05-13T10:50:39.037Z,331.88
2023-05-13T10:51:39.021Z,320.62
2023-05-13T10:52:39.524Z,309.38
2023-05-13T10:53:39.073Z,303.75
2023-05-13T10:54:39.135Z,292.50
2023-05-13T10:55:39.042Z,275.62
2023-05-13T10:56:39.117Z,258.75
2023-05-13T10:57:38.965Z,241.88
2023-05-13T10:58:38.983Z,225.00
2023-05-13T10:59:39.673Z,208.12
2023-05-13T11:00:38.986Z,191.25
2023-05-13T11:01:39.333Z,174.38
2023-05-13T11:02:39.606Z,163.12
2023-05-13T11:03:39.575Z,146.25
2023-05-13T11:04:39.377Z,140.62
2023-05-13T11:05:39.780Z,135.00
2023-05-13T11:06:39.647Z,129.38
2023-05-13T11:07:40.564Z,123.75
2023-05-13T11:08:39.641Z,123.75
2023-05-13T11:09:39.436Z,135.00
2023-05-13T11:10:40.798Z,146.25
2023-05-13T11:11:38.970Z,163.12
2023-05-13T11:12:39.299Z,168.75
2023-05-13T11:13:39.013Z,180.00
2023-05-13T11:14:39.324Z,191.25
2023-05-13T11:15:39.001Z,202.50
2023-05-13T11:16:39.274Z,213.75
2023-05-13T11:17:39.491Z,225.00
2023-05-13T11:18:39.048Z,230.62
2023-05-13T11:19:39.134Z,236.25
2023-05-13T11:20:51.691Z,236.25
2023-05-13T11:21:41.411Z,225.00
2023-05-13T11:22:39.252Z,213.75
2023-05-13T11:23:39.422Z,208.12
2023-05-13T11:24:39.038Z,196.88
2023-05-13T11:25:39.165Z,191.25
2023-05-13T11:26:39.628Z,191.25
2023-05-13T11:27:39.103Z,191.25
2023-05-13T11:28:38.747Z,191.25
2023-05-13T11:29:39.369Z,185.62
2023-05-13T11:30:38.854Z,185.62
2023-05-13T11:31:38.840Z,185.62
2023-05-13T11:32:39.551Z,185.62
2023-05-13T11:33:39.330Z,180.00
2023-05-13T11:34:38.854Z,168.75
2023-05-13T11:35:39.080Z,157.50
2023-05-13T11:36:39.246Z,146.25
2023-05-13T11:37:39.438Z,135.00
2023-05-13T11:38:39.246Z,123.75
2023-05-13T11:39:38.806Z,118.12
2023-05-13T11:40:39.284Z,118.12
2023-05-13T11:41:39.386Z,118.12
2023-05-13T11:42:39.125Z,118.12
2023-05-13T11:43:39.567Z,123.75
2023-05-13T11:44:39.331Z,123.75
2023-05-13T11:45:39.367Z,129.38
2023-05-13T11:46:39.092Z,135.00
2023-05-13T11:47:39.491Z,140.62
2023-05-13T11:48:39.085Z,146.25
2023-05-13T11:49:39.628Z,157.50
2023-05-13T11:50:39.300Z,163.12
2023-05-13T11:51:39.046Z,174.38
2023-05-13T11:52:39.053Z,180.00
2023-05-13T11:53:39.374Z,180.00
2023-05-13T11:54:39.291Z,185.62
2023-05-13T11:55:39.053Z,196.88
2023-05-13T11:56:39.147Z,202.50
2023-05-13T11:57:38.952Z,213.75
2023-05-13T11:59:11.154Z,219.38
2023-05-13T11:59:47.938Z,230.62
2023-05-13T12:00:40.845Z,241.88
2023-05-13T12:01:38.932Z,247.50
2023-05-13T12:02:40.524Z,253.12
2023-05-13T12:03:39.205Z,264.38
2023-05-13T12:04:38.687Z,281.25
2023-05-13T12:05:38.632Z,292.50
2023-05-13T12:06:38.490Z,309.38
2023-05-13T12:07:38.517Z,320.62
2023-05-13T12:08:38.610Z,331.88
2023-05-13T12:09:38.603Z,343.12
2023-05-13T12:10:38.689Z,354.38
2023-05-13T12:11:38.505Z,365.62
2023-05-13T12:12:38.630Z,376.88
2023-05-13T12:13:38.490Z,382.50
2023-05-13T12:14:39.923Z,382.50
2023-05-13T12:15:38.481Z,382.50
2023-05-13T12:16:38.842Z,388.12
2023-05-13T12:17:40.003Z,388.12
2023-05-13T12:18:38.570Z,382.50
2023-05-13T12:19:38.586Z,376.88
2023-05-13T12:20:38.944Z,371.25
2023-05-13T12:21:38.775Z,376.88
2023-05-13T12:22:39.012Z,382.50
2023-05-13T12:23:39.064Z,393.75
2023-05-13T12:24:39.059Z,416.25
2023-05-13T12:25:39.457Z,444.38
2023-05-13T12:26:38.724Z,551.25
2023-05-13T12:27:38.328Z,500.62
2023-05-13T12:28:38.543Z,500.62
2023-05-13T12:29:38.782Z,534.38
2023-05-13T12:30:38.894Z,641.25
2023-05-13T12:31:39.291Z,641.25
2023-05-13T12:32:38.849Z,725.62
2023-05-13T12:33:39.000Z,720.00
2023-05-13T12:34:38.984Z,725.62
2023-05-13T12:35:38.813Z,748.12
2023-05-13T12:36:39.211Z,770.62
2023-05-13T12:37:38.411Z,793.12
2023-05-13T12:38:38.885Z,703.12
2023-05-13T12:39:38.947Z,697.50
2023-05-13T12:40:38.650Z,810.00
2023-05-13T12:41:38.690Z,736.88
2023-05-13T12:42:38.682Z,714.38
2023-05-13T12:43:38.523Z,691.88
2023-05-13T12:44:38.280Z,804.38